Time;durP1;ratioP1;P1;durP2;ratioP2;P2;SDS_P1;SDS_P2;PMS_P1;PMS_P2;Temp;Humidity;BMP_temperature;BMP_pressure;BME280_temperature;BME280_humidity;BME280_pressure;Samples;Min_cycle;Max_cycle;Signal;HPM_P1;HPM_P2
2022/09/04 00:00:37;;;;;;;;;;;16.80;77.30;;;;;;5073763;28;19997;-70
2022/09/04 00:03:22;;;;;;;;;;;16.80;77.50;;;;;;5073679;28;19947;-69
2022/09/04 00:05:50;;;;;;;;;;;16.80;77.80;;;;;;5071805;28;19974;-69
2022/09/04 00:08:29;;;;;;;;;;;16.70;77.50;;;;;;5085519;28;19930;-70
2022/09/04 00:11:15;;;;;;;;;;;16.70;77.70;;;;;;5067889;28;19928;-69
2022/09/04 00:13:56;;;;;;;;;;;16.60;77.90;;;;;;5026205;28;19927;-69
2022/09/04 00:16:26;;;;;;;;;;;16.60;78.30;;;;;;5064224;28;19939;-69
2022/09/04 00:18:58;;;;;;;;;;;16.60;79.80;;;;;;5066163;28;20321;-69
2022/09/04 00:21:36;;;;;;;;;;;16.50;78.60;;;;;;5070796;28;19924;-69
2022/09/04 00:24:03;;;;;;;;;;;16.40;78.60;;;;;;5070867;28;19927;-69
2022/09/04 00:26:32;;;;;;;;;;;16.40;80.50;;;;;;5087160;28;19955;-69
2022/09/04 00:29:02;;;;;;;;;;;16.40;79.30;;;;;;5085700;28;19927;-69
2022/09/04 00:31:35;;;;;;;;;;;16.30;79.10;;;;;;5074909;28;19920;-69
2022/09/04 00:34:06;;;;;;;;;;;16.40;80.40;;;;;;5070571;28;19924;-69
2022/09/04 00:36:33;;;;;;;;;;;16.30;80.50;;;;;;5074927;28;19924;-69
2022/09/04 00:39:01;;;;;;;;;;;16.30;80.30;;;;;;5090927;28;20361;-69
2022/09/04 00:41:29;;;;;;;;;;;16.20;80.40;;;;;;5090796;28;19927;-69
2022/09/04 00:44:15;;;;;;;;;;;16.20;80.20;;;;;;5071584;28;19927;-70
2022/09/04 00:46:40;;;;;;;;;;;16.10;81.50;;;;;;5074002;28;19951;-69
2022/09/04 00:49:35;;;;;;;;;;;16.10;80.40;;;;;;5057328;28;19967;-69
2022/09/04 00:52:10;;;;;;;;;;;16.10;83.20;;;;;;5000654;28;19932;-69
2022/09/04 00:54:43;;;;;;;;;;;16.00;80.70;;;;;;5074803;28;19982;-69
2022/09/04 00:57:14;;;;;;;;;;;16.00;80.60;;;;;;5056094;28;20051;-70
2022/09/04 00:59:46;;;;;;;;;;;16.00;80.70;;;;;;5072523;28;19924;-69
2022/09/04 01:02:31;;;;;;;;;;;16.00;81.10;;;;;;5074031;28;19931;-69
2022/09/04 01:05:12;;;;;;;;;;;15.90;81.10;;;;;;5071382;28;19926;-69
2022/09/04 01:07:45;;;;;;;;;;;16.00;83.90;;;;;;5095290;28;20277;-69
2022/09/04 01:10:28;;;;;;;;;;;15.90;81.30;;;;;;5082876;28;19920;-69
2022/09/04 01:12:57;;;;;;;;;;;15.90;81.40;;;;;;5089295;28;20338;-69
2022/09/04 01:15:34;;;;;;;;;;;15.90;81.60;;;;;;5069107;28;19973;-69
2022/09/04 01:18:00;;;;;;;;;;;15.80;82.20;;;;;;5070742;28;19989;-69
2022/09/04 01:20:31;;;;;;;;;;;15.80;81.70;;;;;;5071135;28;19932;-69
2022/09/04 01:23:26;;;;;;;;;;;15.80;82.90;;;;;;5068004;28;19924;-69
2022/09/04 01:26:10;;;;;;;;;;;15.80;82.10;;;;;;5065665;28;19942;-69
2022/09/04 01:28:51;;;;;;;;;;;15.70;82.40;;;;;;5071611;28;20014;-69
2022/09/04 01:31:30;;;;;;;;;;;15.70;83.10;;;;;;5072740;28;19970;-69
2022/09/04 01:34:12;;;;;;;;;;;15.70;83.40;;;;;;5068003;28;19920;-69
2022/09/04 01:36:47;;;;;;;;;;;15.70;82.90;;;;;;5089830;28;20451;-69
2022/09/04 01:39:12;;;;;;;;;;;15.60;83.20;;;;;;5067543;28;20719;-69
2022/09/04 01:41:51;;;;;;;;;;;15.60;84.10;;;;;;5064995;28;19966;-70
2022/09/04 01:44:17;;;;;;;;;;;15.60;83.30;;;;;;5068219;28;20006;-70
2022/09/04 01:46:53;;;;;;;;;;;15.50;83.40;;;;;;5068851;28;20065;-70
2022/09/04 01:49:19;;;;;;;;;;;15.50;83.50;;;;;;5066795;28;19920;-70
2022/09/04 01:52:04;;;;;;;;;;;15.50;84.00;;;;;;5072873;28;19965;-69
2022/09/04 01:54:47;;;;;;;;;;;15.50;83.90;;;;;;5080097;28;20296;-69
2022/09/04 01:57:28;;;;;;;;;;;15.50;84.80;;;;;;5073200;28;20500;-69
2022/09/04 02:00:09;;;;;;;;;;;15.50;84.10;;;;;;5073749;28;20023;-70
2022/09/04 02:02:53;;;;;;;;;;;15.40;84.20;;;;;;5071516;28;19927;-70
2022/09/04 02:05:29;;;;;;;;;;;15.40;84.60;;;;;;5062828;28;20357;-69
2022/09/04 02:08:13;;;;;;;;;;;15.30;85.00;;;;;;5071690;28;19930;-70
2022/09/04 02:10:47;;;;;;;;;;;15.30;85.00;;;;;;5067992;28;19935;-70
2022/09/04 02:13:19;;;;;;;;;;;15.20;85.60;;;;;;5069085;28;19924;-70
2022/09/04 02:16:03;;;;;;;;;;;15.20;85.60;;;;;;5089311;28;19924;-70
2022/09/04 02:18:51;;;;;;;;;;;15.20;86.20;;;;;;5091176;28;19927;-70
2022/09/04 02:21:22;;;;;;;;;;;15.10;86.10;;;;;;5071472;28;20002;-70
2022/09/04 02:23:59;;;;;;;;;;;15.10;86.10;;;;;;5069753;28;19969;-70
2022/09/04 02:26:35;;;;;;;;;;;15.10;86.40;;;;;;5068650;28;19924;-70
2022/09/04 02:29:10;;;;;;;;;;;15.00;87.30;;;;;;5071169;28;19920;-70
2022/09/04 02:31:55;;;;;;;;;;;15.00;87.60;;;;;;5059215;28;19924;-70
2022/09/04 02:34:41;;;;;;;;;;;14.90;87.30;;;;;;5053671;28;19920;-70
2022/09/04 02:37:19;;;;;;;;;;;14.90;87.70;;;;;;5070126;28;19924;-70
2022/09/04 02:40:05;;;;;;;;;;;14.90;87.90;;;;;;5072011;28;19935;-69
2022/09/04 02:42:49;;;;;;;;;;;14.80;88.00;;;;;;5070272;28;20322;-69
2022/09/04 02:45:23;;;;;;;;;;;14.80;88.40;;;;;;5067060;28;19956;-70
2022/09/04 02:48:12;;;;;;;;;;;14.80;88.40;;;;;;5069754;28;20304;-70
2022/09/04 02:50:56;;;;;;;;;;;14.80;88.80;;;;;;5071871;28;20002;-70
2022/09/04 02:53:39;;;;;;;;;;;14.80;89.30;;;;;;5080227;28;19951;-70
2022/09/04 02:56:23;;;;;;;;;;;14.80;90.50;;;;;;5055950;28;20258;-70
2022/09/04 02:58:59;;;;;;;;;;;14.80;90.30;;;;;;5089838;28;20288;-70
2022/09/04 03:01:35;;;;;;;;;;;14.70;89.70;;;;;;5085951;28;19926;-69
2022/09/04 03:04:03;;;;;;;;;;;14.70;89.90;;;;;;5065817;28;20133;-70
2022/09/04 03:06:31;;;;;;;;;;;14.60;89.60;;;;;;5070611;28;19930;-70
2022/09/04 03:09:23;;;;;;;;;;;14.60;90.40;;;;;;5088026;22;19981;-69
2022/09/04 03:12:03;;;;;;;;;;;14.60;90.20;;;;;;5051491;28;19924;-69
2022/09/04 03:14:37;;;;;;;;;;;14.60;90.40;;;;;;5050502;28;19920;-69
2022/09/04 03:17:07;;;;;;;;;;;14.60;90.20;;;;;;5070951;28;20401;-70
2022/09/04 03:19:32;;;;;;;;;;;14.50;90.30;;;;;;5031226;28;20365;-70
2022/09/04 03:22:17;;;;;;;;;;;14.50;90.40;;;;;;5057915;28;19927;-69
2022/09/04 03:24:45;;;;;;;;;;;14.40;90.50;;;;;;5051691;28;20396;-70
2022/09/04 03:27:13;;;;;;;;;;;14.40;90.60;;;;;;5052280;28;19935;-70
2022/09/04 03:29:50;;;;;;;;;;;14.40;90.90;;;;;;5051810;28;19928;-69
2022/09/04 03:32:39;;;;;;;;;;;14.30;90.80;;;;;;5050842;28;20282;-69
2022/09/04 03:35:05;;;;;;;;;;;14.30;91.00;;;;;;5042445;28;19928;-70
2022/09/04 03:37:37;;;;;;;;;;;14.30;91.20;;;;;;5048047;28;19924;-70
2022/09/04 03:40:11;;;;;;;;;;;14.20;91.20;;;;;;5052171;28;20482;-70
2022/09/04 03:42:52;;;;;;;;;;;14.30;91.30;;;;;;5051567;28;20381;-70
2022/09/04 03:45:24;;;;;;;;;;;14.20;91.50;;;;;;5051467;28;19932;-70
2022/09/04 03:48:19;;;;;;;;;;;14.20;91.60;;;;;;5050629;28;19989;-70
2022/09/04 03:50:53;;;;;;;;;;;14.10;91.70;;;;;;5013949;28;19957;-69
2022/09/04 03:53:19;;;;;;;;;;;14.10;91.60;;;;;;5044131;28;19929;-70
2022/09/04 03:56:03;;;;;;;;;;;14.00;91.90;;;;;;5053948;28;20011;-70
2022/09/04 03:58:40;;;;;;;;;;;14.00;91.80;;;;;;5030946;28;19927;-70
2022/09/04 04:01:21;;;;;;;;;;;13.90;92.30;;;;;;5051532;28;19925;-70
2022/09/04 04:03:50;;;;;;;;;;;13.90;92.50;;;;;;5053645;28;20298;-70
2022/09/04 04:06:28;;;;;;;;;;;13.90;93.10;;;;;;5054662;28;19935;-70
2022/09/04 04:09:03;;;;;;;;;;;13.80;93.30;;;;;;5069482;28;19932;-69
2022/09/04 04:11:41;;;;;;;;;;;13.80;93.20;;;;;;5040230;28;20259;-69
2022/09/04 04:14:13;;;;;;;;;;;13.80;93.20;;;;;;5052056;28;19924;-70
2022/09/04 04:16:51;;;;;;;;;;;13.70;93.10;;;;;;5056151;28;19924;-69
2022/09/04 04:19:19;;;;;;;;;;;13.70;93.80;;;;;;5058880;28;19927;-70
2022/09/04 04:22:04;;;;;;;;;;;13.70;94.00;;;;;;5054825;28;20019;-70
2022/09/04 04:24:47;;;;;;;;;;;13.70;93.80;;;;;;5048413;28;19964;-70
2022/09/04 04:27:25;;;;;;;;;;;13.70;93.90;;;;;;5056379;28;19920;-70
2022/09/04 04:29:53;;;;;;;;;;;13.60;94.30;;;;;;5077906;28;19925;-70
2022/09/04 04:32:34;;;;;;;;;;;13.60;94.70;;;;;;5040989;28;20343;-67
2022/09/04 04:35:03;;;;;;;;;;;13.50;94.80;;;;;;5072954;28;20397;-69
2022/09/04 04:37:34;;;;;;;;;;;13.40;94.90;;;;;;5055483;28;20294;-70
2022/09/04 04:40:16;;;;;;;;;;;13.40;95.10;;;;;;5054998;28;19921;-70
2022/09/04 04:42:53;;;;;;;;;;;13.40;95.40;;;;;;5064151;28;19929;-70
2022/09/04 04:45:50;;;;;;;;;;;13.40;95.60;;;;;;5072090;28;19966;-70
2022/09/04 04:48:35;;;;;;;;;;;13.30;95.60;;;;;;5049108;28;19920;-69
2022/09/04 04:51:10;;;;;;;;;;;13.30;96.00;;;;;;5053398;28;19924;-70
2022/09/04 04:53:41;;;;;;;;;;;13.30;96.10;;;;;;5051221;28;19932;-69
2022/09/04 04:56:18;;;;;;;;;;;13.30;96.10;;;;;;5054524;28;20405;-70
2022/09/04 04:58:54;;;;;;;;;;;13.30;96.00;;;;;;5051560;28;19932;-69
2022/09/04 05:01:49;;;;;;;;;;;13.30;96.20;;;;;;5048511;28;20015;-70
2022/09/04 05:04:18;;;;;;;;;;;13.30;96.00;;;;;;5039981;28;19928;-69
2022/09/04 05:06:46;;;;;;;;;;;13.40;96.00;;;;;;5053958;28;19925;-70
2022/09/04 05:09:13;;;;;;;;;;;13.40;96.00;;;;;;5066880;28;20404;-69
2022/09/04 05:11:38;;;;;;;;;;;13.40;95.80;;;;;;5050253;28;19928;-70
2022/09/04 05:14:23;;;;;;;;;;;13.40;95.70;;;;;;5034933;28;20350;-69
2022/09/04 05:16:51;;;;;;;;;;;13.40;96.10;;;;;;5053970;28;20026;-70
2022/09/04 05:19:21;;;;;;;;;;;13.40;95.90;;;;;;5052815;28;19947;-70
2022/09/04 05:21:47;;;;;;;;;;;13.50;96.10;;;;;;5053443;28;20239;-69
2022/09/04 05:24:15;;;;;;;;;;;13.50;96.10;;;;;;5052215;28;19927;-69
2022/09/04 05:26:59;;;;;;;;;;;13.40;96.50;;;;;;5053207;28;20277;-69
2022/09/04 05:29:32;;;;;;;;;;;13.30;96.80;;;;;;5043948;28;19936;-70
2022/09/04 05:31:57;;;;;;;;;;;13.30;96.80;;;;;;5037038;28;20289;-69
2022/09/04 05:34:23;;;;;;;;;;;13.40;97.00;;;;;;5068117;28;19928;-70
2022/09/04 05:36:56;;;;;;;;;;;13.50;97.00;;;;;;5049690;28;19932;-69
2022/09/04 05:39:21;;;;;;;;;;;13.60;96.90;;;;;;5052345;28;19927;-69
2022/09/04 05:41:58;;;;;;;;;;;13.50;97.20;;;;;;5051949;28;19920;-69
2022/09/04 05:44:42;;;;;;;;;;;13.60;97.50;;;;;;5048047;28;19927;-69
2022/09/04 05:47:27;;;;;;;;;;;13.70;97.60;;;;;;5052213;28;19928;-70
2022/09/04 05:50:07;;;;;;;;;;;13.80;97.70;;;;;;5047987;28;19924;-70
2022/09/04 05:52:44;;;;;;;;;;;14.10;97.30;;;;;;5064692;28;19932;-69
2022/09/04 05:55:16;;;;;;;;;;;14.90;96.20;;;;;;5064833;28;20015;-70
2022/09/04 05:57:41;;;;;;;;;;;;;;;;;;5069963;28;19938;-70
2022/09/04 06:00:13;;;;;;;;;;;17.00;90.30;;;;;;5048154;28;19928;-70
2022/09/04 06:02:55;;;;;;;;;;;17.70;88.10;;;;;;5061603;28;19924;-67
2022/09/04 06:05:28;;;;;;;;;;;18.40;84.90;;;;;;5068221;28;19930;-70
2022/09/04 06:07:59;;;;;;;;;;;19.20;84.20;;;;;;5069338;28;19924;-68
2022/09/04 06:10:32;;;;;;;;;;;19.30;80.70;;;;;;5067650;28;20430;-70
2022/09/04 06:13:06;;;;;;;;;;;19.40;79.80;;;;;;5068305;28;20011;-68
2022/09/04 06:15:34;;;;;;;;;;;19.50;81.10;;;;;;5051630;28;19925;-68
2022/09/04 06:18:00;;;;;;;;;;;19.40;81.40;;;;;;5051715;28;20012;-68
2022/09/04 06:20:38;;;;;;;;;;;19.30;81.30;;;;;;5034101;28;20314;-68
2022/09/04 06:23:18;;;;;;;;;;;19.30;79.80;;;;;;5068406;28;20381;-69
2022/09/04 06:26:01;;;;;;;;;;;20.10;78.70;;;;;;5051546;28;19920;-68
2022/09/04 06:28:42;;;;;;;;;;;20.80;77.50;;;;;;5062054;28;20023;-68
2022/09/04 06:31:19;;;;;;;;;;;21.20;75.00;;;;;;5068148;28;19966;-68
2022/09/04 06:33:45;;;;;;;;;;;21.50;76.00;;;;;;5051859;28;19973;-68
2022/09/04 06:36:15;;;;;;;;;;;21.00;73.80;;;;;;5047623;28;19924;-68
2022/09/04 06:38:44;;;;;;;;;;;21.10;74.50;;;;;;5071845;28;19921;-68
2022/09/04 06:41:09;;;;;;;;;;;21.10;75.50;;;;;;5037399;28;20007;-68
2022/09/04 06:43:36;;;;;;;;;;;20.80;75.70;;;;;;5043649;28;20054;-68
2022/09/04 06:46:05;;;;;;;;;;;20.60;75.60;;;;;;5055430;28;19924;-68
2022/09/04 06:48:36;;;;;;;;;;;20.70;75.80;;;;;;5053649;28;19921;-68
2022/09/04 06:51:15;;;;;;;;;;;20.90;77.10;;;;;;5046756;28;20029;-68
2022/09/04 06:53:57;;;;;;;;;;;21.10;74.80;;;;;;5053800;28;19960;-68
2022/09/04 06:56:41;;;;;;;;;;;20.60;75.90;;;;;;5071921;28;19967;-68
2022/09/04 06:59:23;;;;;;;;;;;20.70;76.60;;;;;;5053392;28;19963;-68
2022/09/04 07:02:00;;;;;;;;;;;20.90;74.30;;;;;;5060785;28;19949;-68
2022/09/04 07:04:34;;;;;;;;;;;21.20;74.30;;;;;;5073656;28;20373;-68
2022/09/04 07:07:18;;;;;;;;;;;21.60;72.80;;;;;;5054226;28;19920;-68
2022/09/04 07:09:50;;;;;;;;;;;21.80;74.00;;;;;;5052199;28;19970;-68
2022/09/04 07:12:26;;;;;;;;;;;21.60;75.20;;;;;;5052152;28;19927;-68
2022/09/04 07:15:11;;;;;;;;;;;21.50;75.20;;;;;;5049986;28;19996;-68
2022/09/04 07:17:40;;;;;;;;;;;21.40;74.60;;;;;;5049445;28;19933;-70
2022/09/04 07:20:11;;;;;;;;;;;21.40;74.60;;;;;;5053037;28;19924;-69
2022/09/04 07:22:46;;;;;;;;;;;21.70;74.70;;;;;;5053020;28;19924;-68
2022/09/04 07:25:31;;;;;;;;;;;21.80;74.50;;;;;;5053164;28;20613;-68
2022/09/04 07:28:06;;;;;;;;;;;21.60;73.60;;;;;;5071147;28;19967;-68
2022/09/04 07:30:40;;;;;;;;;;;21.60;74.90;;;;;;5052893;28;19931;-69
2022/09/04 07:33:11;;;;;;;;;;;21.10;75.50;;;;;;5070994;28;19924;-69
2022/09/04 07:35:36;;;;;;;;;;;20.60;75.90;;;;;;5069530;28;19931;-69
2022/09/04 07:38:08;;;;;;;;;;;20.60;77.50;;;;;;5074281;28;19925;-69
2022/09/04 07:40:45;;;;;;;;;;;20.80;78.00;;;;;;5057079;28;20424;-69
2022/09/04 07:43:20;;;;;;;;;;;20.70;76.30;;;;;;5076005;28;19931;-68
2022/09/04 07:45:50;;;;;;;;;;;20.40;77.10;;;;;;5077496;28;20257;-69
2022/09/04 07:48:18;;;;;;;;;;;20.20;78.90;;;;;;5057158;28;20008;-69
2022/09/04 07:51:03;;;;;;;;;;;20.30;79.90;;;;;;5068656;28;19920;-69
2022/09/04 07:53:32;;;;;;;;;;;20.30;79.60;;;;;;5078398;28;20003;-69
2022/09/04 07:56:16;;;;;;;;;;;20.40;79.40;;;;;;5039832;28;19936;-69
2022/09/04 07:58:44;;;;;;;;;;;20.40;78.80;;;;;;5055073;28;19935;-69
2022/09/04 08:01:36;;;;;;;;;;;20.30;78.90;;;;;;5032402;28;19925;-68
2022/09/04 08:04:20;;;;;;;;;;;20.20;80.50;;;;;;5056766;28;19920;-69
2022/09/04 08:06:52;;;;;;;;;;;20.20;79.60;;;;;;5073389;28;19924;-69
2022/09/04 08:09:37;;;;;;;;;;;20.30;79.30;;;;;;5067168;28;19960;-69
2022/09/04 08:12:20;;;;;;;;;;;20.40;79.70;;;;;;5054282;28;19924;-69
2022/09/04 08:14:54;;;;;;;;;;;20.30;80.30;;;;;;5054983;28;19920;-68
2022/09/04 08:17:41;;;;;;;;;;;20.40;79.90;;;;;;5056650;28;20266;-69
2022/09/04 08:20:34;;;;;;;;;;;20.50;80.20;;;;;;5054078;28;19975;-69
2022/09/04 08:23:18;;;;;;;;;;;20.50;80.40;;;;;;5036533;28;19925;-68
2022/09/04 08:26:00;;;;;;;;;;;20.60;80.50;;;;;;5071205;28;20128;-69
2022/09/04 08:28:45;;;;;;;;;;;20.70;79.40;;;;;;5052458;28;20001;-69
2022/09/04 08:31:17;;;;;;;;;;;20.80;80.00;;;;;;5039279;28;20362;-69
2022/09/04 08:33:54;;;;;;;;;;;20.90;79.70;;;;;;5036430;28;19999;-68
2022/09/04 08:36:40;;;;;;;;;;;21.10;79.00;;;;;;5057641;28;20070;-68
2022/09/04 08:39:23;;;;;;;;;;;21.10;80.10;;;;;;5056129;28;20111;-69
2022/09/04 08:42:14;;;;;;;;;;;21.30;80.30;;;;;;5056090;28;20370;-69
2022/09/04 08:45:03;;;;;;;;;;;21.50;78.90;;;;;;5055290;28;20324;-69
2022/09/04 08:47:37;;;;;;;;;;;21.70;79.00;;;;;;5018491;28;20302;-69
2022/09/04 08:50:06;;;;;;;;;;;21.70;78.90;;;;;;5054437;28;19927;-68
2022/09/04 08:52:52;;;;;;;;;;;21.90;78.30;;;;;;5052780;28;19998;-68
2022/09/04 08:55:36;;;;;;;;;;;22.00;77.90;;;;;;5073049;28;20615;-68
2022/09/04 08:58:20;;;;;;;;;;;22.00;78.10;;;;;;5052946;28;19939;-68
2022/09/04 09:00:54;;;;;;;;;;;22.10;79.70;;;;;;5059071;28;19920;-69
2022/09/04 09:03:38;;;;;;;;;;;22.20;78.50;;;;;;5051393;28;19928;-69
2022/09/04 09:06:34;;;;;;;;;;;22.30;77.80;;;;;;5070146;28;20389;-68
2022/09/04 09:09:26;;;;;;;;;;;22.50;77.10;;;;;;5070777;28;19925;-68
2022/09/04 09:11:52;;;;;;;;;;;22.60;76.00;;;;;;5054029;28;19928;-68
2022/09/04 09:14:32;;;;;;;;;;;22.50;75.90;;;;;;5047968;28;19931;-69
2022/09/04 09:17:11;;;;;;;;;;;22.60;77.30;;;;;;5042969;28;19932;-68
2022/09/04 09:19:43;;;;;;;;;;;22.70;77.40;;;;;;5070169;28;19920;-68
2022/09/04 09:22:11;;;;;;;;;;;22.90;76.50;;;;;;5066989;28;19924;-68
2022/09/04 09:24:56;;;;;;;;;;;22.90;75.70;;;;;;5050206;28;19975;-68
2022/09/04 09:27:24;;;;;;;;;;;22.90;76.70;;;;;;5044016;28;19931;-69
2022/09/04 09:30:02;;;;;;;;;;;22.90;76.10;;;;;;5033073;28;20390;-68
2022/09/04 09:32:27;;;;;;;;;;;23.10;76.00;;;;;;5052864;28;19928;-69
2022/09/04 09:35:12;;;;;;;;;;;23.10;76.20;;;;;;5057765;28;19924;-69
2022/09/04 09:37:46;;;;;;;;;;;23.00;74.90;;;;;;5070854;28;19960;-68
2022/09/04 09:40:18;;;;;;;;;;;23.20;75.60;;;;;;5053209;28;19920;-68
2022/09/04 09:42:49;;;;;;;;;;;23.30;75.80;;;;;;5053065;28;20001;-68
2022/09/04 09:45:30;;;;;;;;;;;23.20;75.70;;;;;;5045395;28;20428;-68
2022/09/04 09:47:59;;;;;;;;;;;23.30;76.00;;;;;;5051806;28;20011;-68
2022/09/04 09:50:24;;;;;;;;;;;23.50;75.30;;;;;;5060244;28;19939;-68
2022/09/04 09:52:50;;;;;;;;;;;23.50;75.60;;;;;;5051114;28;19921;-69
2022/09/04 09:55:18;;;;;;;;;;;23.60;75.30;;;;;;5052559;28;19927;-68
2022/09/04 09:58:03;;;;;;;;;;;23.70;75.10;;;;;;5048805;28;19925;-68
2022/09/04 10:00:35;;;;;;;;;;;23.80;74.60;;;;;;5048198;28;19920;-69
2022/09/04 10:03:01;;;;;;;;;;;23.90;74.80;;;;;;5066978;28;20022;-69
2022/09/04 10:05:50;;;;;;;;;;;23.90;74.30;;;;;;5050137;28;21002;-69
2022/09/04 10:08:33;;;;;;;;;;;23.80;74.20;;;;;;5054377;28;19931;-69
2022/09/04 10:10:58;;;;;;;;;;;23.80;73.80;;;;;;5060272;28;20366;-68
2022/09/04 10:13:43;;;;;;;;;;;23.80;73.90;;;;;;5038040;28;19931;-69
2022/09/04 10:16:29;;;;;;;;;;;23.90;74.30;;;;;;5053947;28;19928;-68
2022/09/04 10:19:15;;;;;;;;;;;24.10;73.20;;;;;;5037435;28;19935;-69
2022/09/04 10:21:46;;;;;;;;;;;24.20;74.80;;;;;;5051493;28;19927;-68
2022/09/04 10:24:31;;;;;;;;;;;24.30;72.70;;;;;;5034449;28;20011;-70
2022/09/04 10:27:24;;;;;;;;;;;24.60;72.90;;;;;;5050404;28;20267;-69
2022/09/04 10:30:09;;;;;;;;;;;24.70;72.90;;;;;;5034034;28;19921;-69
2022/09/04 10:32:40;;;;;;;;;;;24.70;71.70;;;;;;5062129;28;19963;-69
2022/09/04 10:35:24;;;;;;;;;;;24.40;71.90;;;;;;5071198;28;20333;-69
2022/09/04 10:38:08;;;;;;;;;;;24.50;72.10;;;;;;5052273;28;19932;-69
2022/09/04 10:40:52;;;;;;;;;;;24.40;71.80;;;;;;5052735;28;19927;-69
2022/09/04 10:43:37;;;;;;;;;;;24.50;73.00;;;;;;5050504;28;19927;-70
2022/09/04 10:46:12;;;;;;;;;;;24.50;70.80;;;;;;5051871;28;19924;-69
2022/09/04 10:48:56;;;;;;;;;;;24.60;72.00;;;;;;5035319;28;20007;-68
2022/09/04 10:51:40;;;;;;;;;;;24.50;71.80;;;;;;5070754;28;20337;-69
2022/09/04 10:54:06;;;;;;;;;;;24.70;71.20;;;;;;5047293;28;19968;-68
2022/09/04 10:57:06;;;;;;;;;;;24.90;72.20;;;;;;5059375;28;20017;-69
2022/09/04 10:59:32;;;;;;;;;;;25.10;71.20;;;;;;4969512;28;20351;-69
2022/09/04 11:02:16;;;;;;;;;;;25.10;69.10;;;;;;5018683;28;19920;-69
2022/09/04 11:04:47;;;;;;;;;;;25.20;70.10;;;;;;5053567;28;19924;-69
2022/09/04 11:07:21;;;;;;;;;;;25.20;70.90;;;;;;5049818;28;19975;-69
2022/09/04 11:09:56;;;;;;;;;;;25.20;70.40;;;;;;5049668;28;19951;-69
2022/09/04 11:12:29;;;;;;;;;;;25.20;70.30;;;;;;5059490;28;19928;-69
2022/09/04 11:14:57;;;;;;;;;;;25.30;69.90;;;;;;5052435;28;19932;-69
2022/09/04 11:17:22;;;;;;;;;;;25.30;69.40;;;;;;5051146;28;19928;-69
2022/09/04 11:19:48;;;;;;;;;;;25.50;69.80;;;;;;5071250;28;19973;-69
2022/09/04 11:22:33;;;;;;;;;;;25.50;68.80;;;;;;5051832;28;19927;-69
2022/09/04 11:25:05;;;;;;;;;;;25.50;69.00;;;;;;5068188;28;19967;-69
2022/09/04 11:27:44;;;;;;;;;;;25.60;69.60;;;;;;5053351;28;19969;-69
2022/09/04 11:30:10;;;;;;;;;;;25.70;69.20;;;;;;5041370;28;20012;-69
2022/09/04 11:32:36;;;;;;;;;;;25.70;69.80;;;;;;5035620;28;19931;-68
2022/09/04 11:35:05;;;;;;;;;;;25.80;69.70;;;;;;5068493;28;19920;-68
2022/09/04 11:37:40;;;;;;;;;;;25.90;69.10;;;;;;5072784;28;19924;-68
2022/09/04 11:40:24;;;;;;;;;;;26.10;68.60;;;;;;5067132;28;19927;-68
2022/09/04 11:43:08;;;;;;;;;;;26.10;69.30;;;;;;5057632;28;19928;-69
2022/09/04 11:45:53;;;;;;;;;;;26.20;69.90;;;;;;5050838;28;19920;-68
2022/09/04 11:48:21;;;;;;;;;;;26.20;69.00;;;;;;5047712;28;19991;-68
2022/09/04 11:51:15;;;;;;;;;;;26.20;68.40;;;;;;5052242;28;19970;-68
2022/09/04 11:53:47;;;;;;;;;;;26.30;68.90;;;;;;5051931;28;19929;-68
2022/09/04 11:56:15;;;;;;;;;;;26.20;68.70;;;;;;5065184;28;19932;-68
2022/09/04 11:58:52;;;;;;;;;;;26.10;69.00;;;;;;5065197;28;19924;-68
2022/09/04 12:01:25;;;;;;;;;;;26.20;68.80;;;;;;5045286;28;19920;-69
2022/09/04 12:03:53;;;;;;;;;;;26.20;70.60;;;;;;5066058;28;20003;-69
2022/09/04 12:06:22;;;;;;;;;;;26.40;70.60;;;;;;5049643;28;20464;-69
2022/09/04 12:08:47;;;;;;;;;;;26.50;67.90;;;;;;5054081;28;19955;-69
2022/09/04 12:11:22;;;;;;;;;;;26.50;69.30;;;;;;5035086;28;20627;-69
2022/09/04 12:14:01;;;;;;;;;;;26.60;69.40;;;;;;5051080;28;19920;-68
2022/09/04 12:16:32;;;;;;;;;;;26.60;68.80;;;;;;5046875;28;19924;-69
2022/09/04 12:18:57;;;;;;;;;;;26.60;67.70;;;;;;5051698;28;19952;-69
2022/09/04 12:21:25;;;;;;;;;;;26.50;68.60;;;;;;5068807;28;19982;-69
2022/09/04 12:24:10;;;;;;;;;;;26.50;69.30;;;;;;5039485;28;19929;-69
2022/09/04 12:26:55;;;;;;;;;;;26.60;68.70;;;;;;5066099;28;19928;-68
2022/09/04 12:29:30;;;;;;;;;;;26.50;68.10;;;;;;5054650;28;20377;-69
2022/09/04 12:31:58;;;;;;;;;;;26.60;68.50;;;;;;5054638;28;20369;-70
2022/09/04 12:34:42;;;;;;;;;;;26.40;68.40;;;;;;5054656;28;19954;-68
2022/09/04 12:37:26;;;;;;;;;;;26.50;68.80;;;;;;5070837;28;19924;-69
2022/09/04 12:40:11;;;;;;;;;;;26.40;69.70;;;;;;5053950;28;19920;-69
2022/09/04 12:42:51;;;;;;;;;;;26.60;69.60;;;;;;5054321;28;19930;-69
2022/09/04 12:45:36;;;;;;;;;;;26.60;69.00;;;;;;5055344;28;20015;-69
2022/09/04 12:48:09;;;;;;;;;;;26.60;68.70;;;;;;5049177;28;19976;-69
2022/09/04 12:50:44;;;;;;;;;;;26.80;68.90;;;;;;5064575;28;19972;-72
2022/09/04 12:53:24;;;;;;;;;;;27.00;69.00;;;;;;5048149;28;19928;-70
2022/09/04 12:56:04;;;;;;;;;;;27.00;69.20;;;;;;5051067;28;19936;-70
2022/09/04 12:58:33;;;;;;;;;;;27.10;68.40;;;;;;5066566;28;19920;-70
2022/09/04 13:00:58;;;;;;;;;;;27.10;68.70;;;;;;5051099;28;19927;-70
2022/09/04 13:03:26;;;;;;;;;;;27.20;68.90;;;;;;5081756;28;19929;-70
2022/09/04 13:06:02;;;;;;;;;;;27.30;68.20;;;;;;5078324;28;20031;-70
2022/09/04 13:09:00;;;;;;;;;;;27.30;68.00;;;;;;5051390;28;19971;-69
2022/09/04 13:11:26;;;;;;;;;;;27.40;67.30;;;;;;5018225;28;20294;-70
2022/09/04 13:14:10;;;;;;;;;;;27.40;67.80;;;;;;5055713;28;19924;-69
2022/09/04 13:16:36;;;;;;;;;;;27.30;67.50;;;;;;5045925;28;19928;-69
2022/09/04 13:19:14;;;;;;;;;;;27.30;68.30;;;;;;5047593;28;19943;-69
2022/09/04 13:21:59;;;;;;;;;;;27.40;67.70;;;;;;5054762;28;19932;-70
2022/09/04 13:24:40;;;;;;;;;;;27.40;68.10;;;;;;5053326;28;20382;-68
2022/09/04 13:27:26;;;;;;;;;;;27.40;67.20;;;;;;5053472;28;19955;-68
2022/09/04 13:29:58;;;;;;;;;;;27.40;68.50;;;;;;5050544;28;19924;-68
2022/09/04 13:32:33;;;;;;;;;;;27.50;68.80;;;;;;5054888;28;19927;-68
2022/09/04 13:35:08;;;;;;;;;;;27.50;68.90;;;;;;5038186;28;19931;-68
2022/09/04 13:37:44;;;;;;;;;;;27.40;67.80;;;;;;5038576;28;19928;-68
2022/09/04 13:40:19;;;;;;;;;;;27.40;67.90;;;;;;5046266;28;19932;-68
2022/09/04 13:42:55;;;;;;;;;;;27.40;67.20;;;;;;5072455;28;19925;-68
2022/09/04 13:45:25;;;;;;;;;;;27.30;67.10;;;;;;5052790;28;19920;-68
2022/09/04 13:48:00;;;;;;;;;;;27.20;67.60;;;;;;5034429;28;20344;-68
2022/09/04 13:50:31;;;;;;;;;;;27.20;67.60;;;;;;5037016;28;20011;-68
2022/09/04 13:52:57;;;;;;;;;;;27.20;68.50;;;;;;5047530;28;19920;-68
2022/09/04 13:55:33;;;;;;;;;;;27.30;68.80;;;;;;5042023;28;19925;-68
2022/09/04 13:58:09;;;;;;;;;;;27.30;68.90;;;;;;5017420;28;20111;-68
2022/09/04 14:00:36;;;;;;;;;;;27.40;68.50;;;;;;5050709;28;20433;-69
2022/09/04 14:03:04;;;;;;;;;;;27.40;68.50;;;;;;5071772;28;20382;-69
2022/09/04 14:05:31;;;;;;;;;;;27.40;68.40;;;;;;5067016;28;19927;-68
2022/09/04 14:08:01;;;;;;;;;;;27.50;68.10;;;;;;5049155;28;20258;-68
2022/09/04 14:10:54;;;;;;;;;;;27.30;66.80;;;;;;5053438;28;19928;-69
2022/09/04 14:13:29;;;;;;;;;;;27.30;67.30;;;;;;5053458;28;19999;-69
2022/09/04 14:16:03;;;;;;;;;;;27.50;68.20;;;;;;5053238;28;19928;-68
2022/09/04 14:18:44;;;;;;;;;;;27.40;68.00;;;;;;5051035;28;19920;-68
2022/09/04 14:21:30;;;;;;;;;;;27.40;67.80;;;;;;5071207;28;19964;-69
2022/09/04 14:24:04;;;;;;;;;;;27.50;67.30;;;;;;4995260;28;19928;-69
2022/09/04 14:26:51;;;;;;;;;;;27.60;67.20;;;;;;5033079;28;19925;-68
2022/09/04 14:29:20;;;;;;;;;;;27.50;67.60;;;;;;5049221;28;19921;-68
2022/09/04 14:32:09;;;;;;;;;;;27.70;67.60;;;;;;5050805;28;19924;-68
2022/09/04 14:34:48;;;;;;;;;;;27.90;66.60;;;;;;5005796;28;19924;-69
2022/09/04 14:37:17;;;;;;;;;;;28.00;67.90;;;;;;5055912;28;19975;-68
2022/09/04 14:40:09;;;;;;;;;;;28.00;67.70;;;;;;5050189;28;19934;-68
2022/09/04 14:42:35;;;;;;;;;;;28.00;67.50;;;;;;5033834;28;19967;-69
2022/09/04 14:45:11;;;;;;;;;;;28.20;67.80;;;;;;5063537;28;19924;-68
2022/09/04 14:47:41;;;;;;;;;;;28.30;66.20;;;;;;5051686;28;19924;-69
2022/09/04 14:50:08;;;;;;;;;;;28.20;66.40;;;;;;5052930;28;20500;-69
2022/09/04 14:52:42;;;;;;;;;;;28.30;67.40;;;;;;5052944;28;19920;-68
2022/09/04 14:55:13;;;;;;;;;;;28.30;64.90;;;;;;5070489;28;19920;-68
2022/09/04 14:57:41;;;;;;;;;;;28.20;66.30;;;;;;5068467;28;19929;-68
2022/09/04 15:00:06;;;;;;;;;;;28.40;67.30;;;;;;5057316;28;20374;-68
2022/09/04 15:02:32;;;;;;;;;;;28.30;66.10;;;;;;5071202;28;19920;-68
2022/09/04 15:05:16;;;;;;;;;;;28.00;66.70;;;;;;5071255;28;19921;-68
2022/09/04 15:07:42;;;;;;;;;;;28.10;67.60;;;;;;5036086;28;19928;-68
2022/09/04 15:10:09;;;;;;;;;;;28.10;68.40;;;;;;5048869;28;20007;-69